RJTK(METAR)
10/16 18:00
METAR RJTK 160900Z 06005KT 9999 FEW030 BKN040 BKN060 17/10 Q1024 RMK
1CU030 5SC040 7SC060 A3024=
戻る
トップページへ戻る
IMOC Co,.Ltd.